createdAt,value
2022-08-01T00:02:15.375Z,43.02
2022-08-01T00:07:17.582Z,43.36
2022-08-01T00:12:19.663Z,43.56
2022-08-01T00:17:21.817Z,43.75
2022-08-01T00:22:23.719Z,43.86
2022-08-01T00:27:25.605Z,44.14
2022-08-01T00:32:27.750Z,44.04
2022-08-01T00:37:29.794Z,44.05
2022-08-01T00:42:31.575Z,43.80
2022-08-01T00:47:33.361Z,44.24
2022-08-01T00:52:36.254Z,44.25
2022-08-01T00:58:02.285Z,44.23
2022-08-01T01:03:00.510Z,44.17
2022-08-01T01:08:13.909Z,44.39
2022-08-01T01:13:21.750Z,44.15
2022-08-01T01:18:39.057Z,44.21
2022-08-01T01:24:08.798Z,44.44
2022-08-01T01:29:22.255Z,44.17
2022-08-01T01:34:25.680Z,44.52
2022-08-01T01:39:30.897Z,44.12
2022-08-01T01:44:33.643Z,44.12
2022-08-01T01:49:35.990Z,44.09
2022-08-01T01:54:42.304Z,44.48
2022-08-01T01:59:45.869Z,44.06
2022-08-01T02:04:49.784Z,43.97
2022-08-01T02:09:52.813Z,44.27
2022-08-01T02:14:57.211Z,44.24
2022-08-01T02:19:59.687Z,44.04
2022-08-01T02:25:07.467Z,44.12
2022-08-01T02:30:12.305Z,44.38
2022-08-01T02:35:24.979Z,44.22
2022-08-01T02:40:33.892Z,44.22
2022-08-01T02:45:38.764Z,44.31
2022-08-01T02:50:44.539Z,43.87
2022-08-01T02:55:48.726Z,44.22
2022-08-01T03:00:51.059Z,44.12
2022-08-01T03:05:55.083Z,44.00
2022-08-01T03:11:00.153Z,43.85
2022-08-01T03:16:03.469Z,43.76
2022-08-01T03:21:07.868Z,43.67
2022-08-01T03:26:10.875Z,43.78
2022-08-01T03:31:15.236Z,43.71
2022-08-01T03:36:21.229Z,43.79
2022-08-01T03:41:24.997Z,43.87
2022-08-01T03:46:33.998Z,43.22
2022-08-01T03:51:38.330Z,43.29
2022-08-01T03:56:43.149Z,43.28
2022-08-01T04:01:47.451Z,43.62
2022-08-01T04:06:55.169Z,43.51
2022-08-01T04:11:57.251Z,43.40
2022-08-01T04:16:59.494Z,43.56
2022-08-01T04:22:01.870Z,43.36
2022-08-01T04:27:07.286Z,43.26
2022-08-01T04:32:14.024Z,43.46
2022-08-01T04:37:19.764Z,43.34
2022-08-01T04:42:26.056Z,43.32
2022-08-01T04:47:33.186Z,43.24
2022-08-01T04:52:36.998Z,43.51
2022-08-01T04:57:41.799Z,43.61
2022-08-01T05:02:44.031Z,43.86
2022-08-01T05:07:46.000Z,43.68
2022-08-01T05:12:48.233Z,43.98
2022-08-01T05:17:50.513Z,43.89
2022-08-01T05:22:52.506Z,44.20
2022-08-01T05:27:54.562Z,44.08
2022-08-01T05:32:56.753Z,44.18
2022-08-01T05:37:59.549Z,44.12
2022-08-01T05:43:02.091Z,44.09
2022-08-01T05:48:04.383Z,44.32
2022-08-01T05:53:06.423Z,44.02
2022-08-01T05:58:08.458Z,44.15
2022-08-01T06:03:15.545Z,43.93
2022-08-01T06:08:17.279Z,44.01
2022-08-01T06:13:20.599Z,44.23
2022-08-01T06:18:22.463Z,44.31
2022-08-01T06:23:32.816Z,44.38
2022-08-01T06:28:34.965Z,44.27
2022-08-01T06:33:36.971Z,44.40
2022-08-01T06:38:39.254Z,45.33
2022-08-01T06:43:41.260Z,45.12
2022-08-01T06:48:43.865Z,45.38
2022-08-01T06:53:45.731Z,45.58
2022-08-01T06:58:47.522Z,45.93
2022-08-01T07:03:53.091Z,46.64
2022-08-01T07:08:56.989Z,47.83
2022-08-01T07:13:59.566Z,48.09
2022-08-01T07:19:01.500Z,48.30
2022-08-01T07:24:12.666Z,47.56
2022-08-01T07:29:16.006Z,47.43
2022-08-01T07:34:18.135Z,48.69
2022-08-01T07:39:20.379Z,48.16
2022-08-01T07:44:22.332Z,48.06
2022-08-01T07:49:24.339Z,47.71
2022-08-01T07:54:33.772Z,47.27
2022-08-01T07:59:36.201Z,47.26
2022-08-01T08:04:38.233Z,47.59
2022-08-01T08:09:40.443Z,47.58
2022-08-01T08:14:42.590Z,47.21
2022-08-01T08:19:45.608Z,46.96
2022-08-01T08:24:47.444Z,46.50
2022-08-01T08:29:49.450Z,46.17
2022-08-01T08:34:51.560Z,46.74
2022-08-01T08:39:53.454Z,46.68
2022-08-01T08:44:56.577Z,47.04
2022-08-01T08:49:59.237Z,47.58
2022-08-01T08:55:01.115Z,48.40
2022-08-01T09:00:03.065Z,47.94
2022-08-01T09:05:05.300Z,47.55
2022-08-01T09:10:08.741Z,48.02
2022-08-01T09:15:10.712Z,48.20
2022-08-01T09:20:24.392Z,48.92
2022-08-01T09:25:29.599Z,48.80
2022-08-01T09:30:38.810Z,48.71
2022-08-01T09:35:45.613Z,48.63
2022-08-01T09:40:47.429Z,48.90
2022-08-01T09:45:53.375Z,48.76
2022-08-01T09:51:03.953Z,48.67
2022-08-01T09:56:11.981Z,46.25
2022-08-01T10:01:13.760Z,45.83
2022-08-01T10:06:24.990Z,44.46
2022-08-01T10:11:36.089Z,44.90
2022-08-01T10:16:39.468Z,45.01
2022-08-01T10:21:47.585Z,44.57
2022-08-01T10:27:09.178Z,43.12
2022-08-01T10:32:11.636Z,43.73
2022-08-01T10:37:14.395Z,44.01
2022-08-01T10:42:18.856Z,43.15
2022-08-01T10:47:50.611Z,43.01
2022-08-01T10:53:24.437Z,43.17
2022-08-01T10:58:42.708Z,43.57
2022-08-01T11:04:08.424Z,43.63
2022-08-01T11:09:16.522Z,42.91
2022-08-01T11:14:26.150Z,42.96
2022-08-01T11:20:07.788Z,42.58
2022-08-01T11:25:09.756Z,42.80
2022-08-01T11:30:15.266Z,41.92
2022-08-01T11:35:22.247Z,41.67
2022-08-01T11:40:29.584Z,41.89
2022-08-01T11:45:48.706Z,41.92
2022-08-01T11:50:55.326Z,41.46
2022-08-01T11:55:58.506Z,41.39
2022-08-01T12:01:00.920Z,41.16
2022-08-01T12:06:03.265Z,40.47
2022-08-01T12:11:07.179Z,40.97
2022-08-01T12:16:10.984Z,40.67
2022-08-01T12:21:13.067Z,40.53
2022-08-01T12:26:30.475Z,39.42
2022-08-01T12:31:37.058Z,40.29
2022-08-01T12:36:39.714Z,40.21
2022-08-01T12:41:44.977Z,39.76
2022-08-01T12:46:47.056Z,39.61
2022-08-01T12:51:57.440Z,39.83
2022-08-01T12:56:59.747Z,39.38
2022-08-01T13:02:09.905Z,39.18
2022-08-01T13:07:12.438Z,39.51
2022-08-01T13:12:14.563Z,39.02
2022-08-01T13:17:34.245Z,39.48
2022-08-01T13:22:38.494Z,39.24
2022-08-01T13:27:40.617Z,39.17
2022-08-01T13:32:59.855Z,38.99
2022-08-01T13:38:01.735Z,39.34
2022-08-01T13:43:03.917Z,39.18
2022-08-01T13:48:12.841Z,39.55
2022-08-01T13:53:22.135Z,39.46
2022-08-01T13:58:24.236Z,40.01
2022-08-01T14:03:33.670Z,40.26
2022-08-01T14:08:35.991Z,40.38
2022-08-01T14:13:39.599Z,40.32
2022-08-01T14:18:49.055Z,40.49
2022-08-01T14:23:51.134Z,40.81
2022-08-01T14:28:53.622Z,40.91
2022-08-01T14:33:55.414Z,40.89
2022-08-01T14:39:00.131Z,41.25
2022-08-01T14:44:03.367Z,40.24
2022-08-01T14:49:05.229Z,40.82
2022-08-01T14:54:07.384Z,40.79
2022-08-01T14:59:21.037Z,41.69
2022-08-01T15:04:23.854Z,41.95
2022-08-01T15:09:26.130Z,42.57
2022-08-01T15:14:46.777Z,40.90
2022-08-01T15:19:56.369Z,40.59
2022-08-01T15:25:01.176Z,40.33
2022-08-01T15:30:04.488Z,39.92
2022-08-01T15:35:07.594Z,40.27
2022-08-01T15:40:10.184Z,40.15
2022-08-01T15:45:37.410Z,39.63
2022-08-01T15:50:38.837Z,39.71
2022-08-01T15:55:40.916Z,38.63
2022-08-01T16:00:43.253Z,38.63
2022-08-01T16:05:45.474Z,38.49
2022-08-01T16:10:47.770Z,37.98
2022-08-01T16:15:50.367Z,38.15
2022-08-01T16:20:52.379Z,37.94
2022-08-01T16:25:54.899Z,38.11
2022-08-01T16:31:15.356Z,37.86
2022-08-01T16:36:19.447Z,38.53
2022-08-01T16:41:21.841Z,37.63
2022-08-01T16:46:25.644Z,38.34
2022-08-01T16:51:27.877Z,38.25
2022-08-01T16:56:34.802Z,38.18
2022-08-01T17:01:59.949Z,37.96
2022-08-01T17:06:58.874Z,38.13
2022-08-01T17:12:00.851Z,38.04
2022-08-01T17:17:02.652Z,38.02
2022-08-01T17:22:04.716Z,37.74
2022-08-01T17:27:12.236Z,37.49
2022-08-01T17:32:14.950Z,37.79
2022-08-01T17:37:17.019Z,37.89
2022-08-01T17:42:19.259Z,37.54
2022-08-01T17:47:48.093Z,37.46
2022-08-01T17:52:46.274Z,37.73
2022-08-01T17:57:48.144Z,37.28
2022-08-01T18:02:50.232Z,37.37
2022-08-01T18:08:01.630Z,37.08
2022-08-01T18:13:04.388Z,36.15
2022-08-01T18:18:07.753Z,37.53
2022-08-01T18:23:11.417Z,37.60
2022-08-01T18:28:22.406Z,37.27
2022-08-01T18:33:33.520Z,36.98
2022-08-01T18:38:37.385Z,37.02
2022-08-01T18:43:45.640Z,36.90
2022-08-01T18:48:48.788Z,36.95
2022-08-01T18:53:52.594Z,36.90
2022-08-01T18:58:55.151Z,36.64
2022-08-01T19:03:57.096Z,36.59
2022-08-01T19:09:02.552Z,36.84
2022-08-01T19:14:04.713Z,36.27
2022-08-01T19:19:09.777Z,36.41
2022-08-01T19:24:23.602Z,36.33
2022-08-01T19:29:35.914Z,35.86
2022-08-01T19:35:06.000Z,35.93
2022-08-01T19:40:08.354Z,35.50
2022-08-01T19:45:11.070Z,35.79
2022-08-01T19:50:13.836Z,35.81
2022-08-01T19:55:16.048Z,35.84
2022-08-01T20:00:24.040Z,35.71
2022-08-01T20:05:30.700Z,35.80
2022-08-01T20:10:32.761Z,37.29
2022-08-01T20:15:34.999Z,38.46
2022-08-01T20:20:37.718Z,38.51
2022-08-01T20:25:42.394Z,38.26
2022-08-01T20:30:44.194Z,37.74
2022-08-01T20:35:53.708Z,38.39
2022-08-01T20:41:00.067Z,38.05
2022-08-01T20:46:02.150Z,37.74
2022-08-01T20:51:16.602Z,37.84
2022-08-01T20:56:46.014Z,37.79
2022-08-01T21:02:02.096Z,37.74
2022-08-01T21:07:24.297Z,37.37
2022-08-01T21:12:43.763Z,37.46
2022-08-01T21:17:55.899Z,37.46
2022-08-01T21:23:00.744Z,37.51
2022-08-01T21:28:04.238Z,37.28
2022-08-01T21:33:11.566Z,37.20
2022-08-01T21:38:16.386Z,37.24
2022-08-01T21:43:18.916Z,37.05
2022-08-01T21:48:26.793Z,37.45
2022-08-01T21:53:54.241Z,37.16
2022-08-01T21:59:24.243Z,37.28
2022-08-01T22:04:38.233Z,37.03
2022-08-01T22:09:44.977Z,37.08
2022-08-01T22:14:49.636Z,37.12
2022-08-01T22:19:55.365Z,37.14
2022-08-01T22:24:58.446Z,37.25
2022-08-01T22:30:05.602Z,36.82
2022-08-01T22:35:10.807Z,36.99
2022-08-01T22:40:14.959Z,36.68
2022-08-01T22:45:26.133Z,36.85
2022-08-01T22:50:36.399Z,37.00
2022-08-01T22:55:59.548Z,37.04
2022-08-01T23:01:09.738Z,37.05
2022-08-01T23:06:13.876Z,36.98
2022-08-01T23:11:15.872Z,36.92
2022-08-01T23:16:18.719Z,37.10
2022-08-01T23:21:20.595Z,37.01
2022-08-01T23:26:23.654Z,36.90
2022-08-01T23:32:00.560Z,36.92
2022-08-01T23:36:49.224Z,36.96
2022-08-01T23:41:57.486Z,36.49
2022-08-01T23:47:01.110Z,36.51
2022-08-01T23:52:04.417Z,36.60
2022-08-01T23:57:06.485Z,36.60
